ENKR/KKN METAR and TAF weather

Enter ICAO airport designator
Station Type Date Time Source
ENKR METAR 2018/12/12 16:50 UTC NOAA

ENKR 121650Z 05004KT 330V120 9999 SCT041 M02/M05 Q1024 RMK WIND 731FT 25026KT


Station Type Date Time Source
ENKR Decoded METAR 2018/12/12 16:50 UTC NOAA

Kirkenes Lufthavn, Norway (ENKR) 69-44N 029-54E 91M
Dec 12, 2018 - 11:50 AM EST / 2018.12.12 1650 UTC
Wind: from the NE (050 degrees) at 5 MPH (4 KT) (direction variable):0
Visibility: greater than 7 mile(s):0
Sky conditions: partly cloudy
Temperature: 28 F (-2 C)
Windchill: 23 F (-5 C):1
Dew Point: 23 F (-5 C)
Relative Humidity: 79%
Pressure (altimeter): 30.24 in. Hg (1024 hPa)
ob: ENKR 121650Z 05004KT 330V120 9999 SCT041 M02/M05 Q1024 RMK WIND 731FT 25026KT
cycle: 17

Station Type Date Time Source
ENKR TAF 2017/08/31 21:36 UTC NOAA

TAF TAF ENKR 312300Z 3121/0109 29005KT 9999 FEW020 SCT040


Example: see airport list